Time;durP1;ratioP1;P1;durP2;ratioP2;P2;SDS_P1;SDS_P2;PMS_P1;PMS_P2;Temp;Humidity;BMP_temperature;BMP_pressure;BME280_temperature;BME280_humidity;BME280_pressure;Samples;Min_cycle;Max_cycle;Signal;HPM_P1;HPM_P2
2023/06/05 00:01:04;;;;;;;20.75;9.82;;;;;;;14.59;100.00;100200.19;5117564;27;20050;-79
2023/06/05 00:03:47;;;;;;;14.68;9.55;;;;;;;14.52;100.00;100186.09;5131920;27;20050;-80
2023/06/05 00:06:31;;;;;;;12.05;9.25;;;;;;;14.89;100.00;100197.34;5116452;27;20404;-80
2023/06/05 00:09:16;;;;;;;12.70;9.13;;;;;;;14.94;100.00;100197.63;5129478;27;20566;-80
2023/06/05 00:12:00;;;;;;;17.10;10.48;;;;;;;14.44;100.00;100197.63;5133931;27;20050;-81
2023/06/05 00:14:46;;;;;;;14.52;9.95;;;;;;;14.36;100.00;100188.03;5118414;27;20126;-82
2023/06/05 00:17:30;;;;;;;14.82;10.13;;;;;;;14.32;100.00;100186.78;5133305;27;20050;-80
2023/06/05 00:20:14;;;;;;;14.30;9.95;;;;;;;14.68;100.00;100196.38;5131365;27;20042;-80
2023/06/05 00:22:58;;;;;;;18.92;11.82;;;;;;;14.89;100.00;100188.63;5133191;27;20080;-80
2023/06/05 00:25:41;;;;;;;;;;;;;;;14.84;100.00;100189.19;5134643;27;20427;-81
2023/06/05 00:28:25;;;;;;;19.38;13.40;;;;;;;14.81;100.00;100189.59;5133722;27;19922;-81
2023/06/05 00:31:09;;;;;;;19.63;14.75;;;;;;;14.89;100.00;100189.44;5133979;27;20041;-81
2023/06/05 00:33:53;;;;;;;21.08;14.85;;;;;;;15.05;100.00;100190.13;5125602;27;20122;-80
2023/06/05 00:36:37;;;;;;;;;;;;;;;14.90;100.00;100191.06;5133225;27;20385;-81
2023/06/05 00:39:21;;;;;;;21.08;14.63;;;;;;;14.70;100.00;100181.16;5131822;27;19954;-81
2023/06/05 00:42:06;;;;;;;20.10;14.40;;;;;;;14.77;100.00;100191.00;5127935;27;20038;-81
2023/06/05 00:44:51;;;;;;;20.08;13.35;;;;;;;14.49;100.00;100192.59;5134004;27;20046;-82
2023/06/05 00:47:35;;;;;;;18.63;13.77;;;;;;;14.60;100.00;100193.91;5132351;27;20119;-80
2023/06/05 00:50:21;;;;;;;20.35;14.38;;;;;;;14.51;100.00;100171.25;5133700;27;20042;-80
2023/06/05 00:53:06;;;;;;;26.40;13.73;;;;;;;14.51;100.00;100189.75;5131736;27;20404;-80
2023/06/05 00:55:51;;;;;;;20.33;12.40;;;;;;;14.64;100.00;100178.47;5134041;27;20042;-80
2023/06/05 00:58:35;;;;;;;17.35;13.00;;;;;;;14.64;100.00;100174.00;5134149;27;20077;-80
2023/06/05 01:01:20;;;;;;;29.88;13.65;;;;;;;14.39;100.00;100182.38;5131943;27;20095;-79
2023/06/05 01:04:05;;;;;;;16.33;11.25;;;;;;;14.49;100.00;100163.56;5132760;27;20054;-78
2023/06/05 01:06:51;;;;;;;18.08;11.93;;;;;;;14.38;100.00;100185.19;5114818;27;20053;-79
2023/06/05 01:09:35;;;;;;;16.88;11.13;;;;;;;14.68;100.00;100174.44;5116816;27;20042;-79
2023/06/05 01:12:35;;;;;;;16.02;10.57;;;;;;;14.56;100.00;100172.31;5111544;27;20118;-80
2023/06/05 01:15:28;;;;;;;15.15;10.43;;;;;;;14.48;100.00;100169.00;5131444;27;20404;-80
2023/06/05 01:18:12;;;;;;;15.27;10.80;;;;;;;14.27;100.00;100174.16;5132692;27;20110;-79
2023/06/05 01:21:01;;;;;;;13.68;9.90;;;;;;;14.48;100.00;100151.34;5131874;27;20184;-79
2023/06/05 01:23:45;;;;;;;17.33;10.32;;;;;;;14.54;100.00;100162.94;5132410;27;20519;-79
2023/06/05 01:27:03;;;;;;;15.50;10.07;;;;;;;14.57;100.00;100167.88;5128365;27;20397;-79
2023/06/05 01:29:53;;;;;;;14.63;10.07;;;;;;;14.60;100.00;100156.91;5132757;27;20095;-79
2023/06/05 01:32:53;;;;;;;16.75;11.73;;;;;;;14.40;100.00;100167.31;5112793;27;20096;-79
2023/06/05 01:35:37;;;;;;;16.20;11.00;;;;;;;14.11;100.00;100154.09;5129572;27;20038;-79
2023/06/05 01:38:23;;;;;;;18.98;11.30;;;;;;;14.19;100.00;100155.00;5131827;27;20122;-79
2023/06/05 01:41:10;;;;;;;17.20;11.50;;;;;;;14.18;100.00;100158.63;5115356;27;20100;-80
2023/06/05 01:43:55;;;;;;;15.63;10.90;;;;;;;14.09;100.00;100155.31;5131014;27;20454;-80
2023/06/05 01:46:40;;;;;;;15.52;10.30;;;;;;;13.96;100.00;100156.81;5116625;28;20396;-79
2023/06/05 01:49:24;;;;;;;16.83;10.60;;;;;;;13.94;100.00;100158.84;5131955;27;20057;-79
2023/06/05 01:52:08;;;;;;;17.85;11.35;;;;;;;13.46;100.00;100167.28;5112931;28;20046;-79
2023/06/05 01:54:53;;;;;;;16.35;10.45;;;;;;;14.11;100.00;100163.84;5132962;28;20042;-78
2023/06/05 01:57:37;;;;;;;14.52;10.40;;;;;;;13.67;100.00;100163.03;5128292;28;20058;-78
2023/06/05 02:00:23;;;;;;;17.65;10.27;;;;;;;13.81;100.00;100164.81;5111209;28;20038;-80
2023/06/05 02:03:07;;;;;;;13.57;9.98;;;;;;;13.47;100.00;100158.34;5118142;28;20039;-78
2023/06/05 02:05:51;;;;;;;15.40;10.45;;;;;;;13.57;100.00;100158.06;5133575;28;20187;-80
2023/06/05 02:08:35;;;;;;;14.68;10.23;;;;;;;13.38;100.00;100146.28;5133087;28;20165;-81
2023/06/05 02:11:21;;;;;;;16.83;10.13;;;;;;;13.51;100.00;100143.00;5132583;28;20498;-81
2023/06/05 02:14:06;;;;;;;15.45;10.25;;;;;;;13.65;100.00;100150.00;5132830;27;20503;-80
2023/06/05 02:16:50;;;;;;;14.32;9.93;;;;;;;13.71;100.00;100151.09;5134812;27;20045;-80
2023/06/05 02:19:36;;;;;;;19.65;11.68;;;;;;;13.46;100.00;100140.91;5137465;27;20445;-81
2023/06/05 02:22:20;;;;;;;17.08;11.32;;;;;;;13.42;100.00;100153.59;5134490;27;20507;-79
2023/06/05 02:25:05;;;;;;;15.88;10.25;;;;;;;13.62;100.00;100155.66;5133791;27;20527;-81
2023/06/05 02:27:50;;;;;;;15.07;10.95;;;;;;;13.66;100.00;100151.69;5136338;27;20123;-80
2023/06/05 02:30:34;;;;;;;17.63;10.48;;;;;;;13.55;100.00;100134.50;5120513;27;20038;-81
2023/06/05 02:33:18;;;;;;;19.83;10.38;;;;;;;13.68;100.00;100146.19;5131650;27;20050;-80
2023/06/05 02:36:03;;;;;;;12.80;8.85;;;;;;;13.32;100.00;100133.81;5133275;27;20507;-81
2023/06/05 02:38:52;;;;;;;16.30;8.85;;;;;;;13.03;100.00;100143.41;5134005;27;20050;-81
2023/06/05 02:41:36;;;;;;;14.35;9.80;;;;;;;12.98;100.00;100144.78;5135200;27;20091;-81
2023/06/05 02:44:20;;;;;;;14.45;9.98;;;;;;;13.17;100.00;100142.56;5117280;27;20163;-81
2023/06/05 02:47:04;;;;;;;;;;;;;;;13.40;100.00;100146.91;5132881;27;20096;-81
2023/06/05 02:49:48;;;;;;;14.63;9.70;;;;;;;13.41;100.00;100143.25;5134096;27;19919;-78
2023/06/05 02:52:34;;;;;;;15.15;9.70;;;;;;;13.55;100.00;100133.69;5135627;27;20143;-81
2023/06/05 02:55:18;;;;;;;13.93;9.32;;;;;;;13.56;100.00;100143.22;5120405;27;20050;-81
2023/06/05 02:58:02;;;;;;;12.45;9.00;;;;;;;13.20;100.00;100142.19;5113487;28;20496;-80
2023/06/05 03:00:46;;;;;;;14.60;8.98;;;;;;;13.04;100.00;100134.50;5114334;28;20135;-80
2023/06/05 03:03:34;;;;;;;14.40;9.93;;;;;;;12.84;100.00;100149.03;5114088;28;20112;-80
2023/06/05 03:06:18;;;;;;;10.45;7.97;;;;;;;13.24;100.00;100134.72;5114414;28;20050;-79
2023/06/05 03:09:02;;;;;;;13.55;9.25;;;;;;;13.18;100.00;100128.41;5114020;28;20058;-80
2023/06/05 03:11:46;;;;;;;11.88;8.68;;;;;;;13.15;100.00;100128.75;5114103;28;20051;-78
2023/06/05 03:14:30;;;;;;;11.38;8.75;;;;;;;12.97;100.00;100121.22;5113954;28;20516;-79
2023/06/05 03:17:15;;;;;;;15.65;9.05;;;;;;;13.10;100.00;100125.84;5110845;28;20050;-78
2023/06/05 03:19:59;;;;;;;14.35;7.97;;;;;;;13.03;100.00;100114.41;5112461;28;20054;-79
2023/06/05 03:22:43;;;;;;;12.13;8.07;;;;;;;13.16;100.00;100119.81;5113833;28;20055;-79
2023/06/05 03:25:27;;;;;;;13.93;8.73;;;;;;;13.29;100.00;100132.38;5113537;28;20141;-79
2023/06/05 03:28:11;;;;;;;11.63;8.55;;;;;;;13.10;100.00;100120.56;5113064;28;20046;-79
2023/06/05 03:30:55;;;;;;;10.55;8.43;;;;;;;13.12;100.00;100129.94;5113910;28;20042;-78
2023/06/05 03:33:39;;;;;;;13.10;8.80;;;;;;;12.83;100.00;100136.84;5113779;28;20038;-79
2023/06/05 03:36:24;;;;;;;12.95;7.55;;;;;;;13.04;100.00;100129.22;5113825;28;20055;-78
2023/06/05 03:39:08;;;;;;;11.65;8.55;;;;;;;12.81;100.00;100130.16;5113667;28;20050;-78
2023/06/05 03:41:52;;;;;;;12.15;8.38;;;;;;;13.18;100.00;100123.13;5113420;28;20083;-80
2023/06/05 03:44:37;;;;;;;12.40;7.85;;;;;;;13.17;100.00;100129.41;5112557;28;20084;-81
2023/06/05 03:47:21;;;;;;;12.32;8.80;;;;;;;13.38;100.00;100127.81;5113713;28;20066;-81
2023/06/05 03:50:06;;;;;;;11.85;8.40;;;;;;;13.41;100.00;100130.06;5112715;28;20095;-81
2023/06/05 03:52:53;;;;;;;13.57;8.48;;;;;;;13.27;100.00;100143.09;5114025;28;20096;-81
2023/06/05 03:55:47;;;;;;;14.00;9.80;;;;;;;13.05;100.00;100122.94;5114060;28;20038;-80
2023/06/05 03:58:31;;;;;;;13.35;9.93;;;;;;;13.26;100.00;100128.28;5109632;28;20055;-81
2023/06/05 04:01:15;;;;;;;14.18;8.50;;;;;;;13.37;100.00;100128.81;5114505;28;20113;-81
2023/06/05 04:03:59;;;;;;;13.13;9.32;;;;;;;13.38;100.00;100122.53;5114256;28;20076;-81
2023/06/05 04:06:43;;;;;;;16.08;9.07;;;;;;;13.26;100.00;100120.38;5108270;28;20042;-81
2023/06/05 04:09:27;;;;;;;14.88;9.48;;;;;;;13.68;100.00;100133.00;5113478;28;20093;-81
2023/06/05 04:12:13;;;;;;;10.77;9.02;;;;;;;13.18;100.00;100132.84;5113052;28;20035;-80
2023/06/05 04:14:58;;;;;;;12.60;9.07;;;;;;;13.31;100.00;100126.91;5110689;28;20039;-81
2023/06/05 04:17:42;;;;;;;16.77;9.55;;;;;;;13.60;100.00;100135.78;5110192;28;20050;-81
2023/06/05 04:20:26;;;;;;;11.90;8.70;;;;;;;13.55;100.00;100128.41;5109806;28;20521;-81
2023/06/05 04:23:10;;;;;;;14.27;10.45;;;;;;;12.94;100.00;100135.59;5113365;28;20065;-80
2023/06/05 04:25:54;;;;;;;18.35;12.02;;;;;;;13.19;100.00;100134.47;5107395;28;20062;-80
2023/06/05 04:28:39;;;;;;;22.75;13.32;;;;;;;13.09;100.00;100124.22;5110114;28;20034;-81
2023/06/05 04:31:25;;;;;;;16.73;12.68;;;;;;;13.36;100.00;100137.69;5112773;28;20039;-81
2023/06/05 04:34:09;;;;;;;18.40;12.35;;;;;;;13.36;100.00;100129.78;5112432;28;20047;-81
2023/06/05 04:36:53;;;;;;;20.77;14.25;;;;;;;12.80;100.00;100128.53;5113469;28;20454;-81
2023/06/05 04:39:38;;;;;;;18.92;14.50;;;;;;;13.44;100.00;100132.34;5113848;28;20531;-81
2023/06/05 04:42:22;;;;;;;20.23;15.38;;;;;;;13.06;100.00;100129.84;5110855;28;20562;-81
2023/06/05 04:45:10;;;;;;;19.08;14.85;;;;;;;13.07;100.00;100137.59;5107600;28;20177;-81
2023/06/05 04:47:54;;;;;;;18.30;12.23;;;;;;;12.88;100.00;100138.94;5111316;28;20046;-81
2023/06/05 04:50:38;;;;;;;19.45;13.02;;;;;;;13.31;100.00;100132.16;5111513;28;20039;-81
2023/06/05 04:53:23;;;;;;;20.80;13.20;;;;;;;13.04;100.00;100122.13;5110874;28;20108;-81
2023/06/05 04:56:07;;;;;;;16.40;11.98;;;;;;;13.29;100.00;100125.25;5110586;28;20058;-80
2023/06/05 04:58:53;;;;;;;20.60;11.45;;;;;;;13.35;100.00;100133.44;5110975;28;20047;-81
2023/06/05 05:01:37;;;;;;;17.17;10.82;;;;;;;13.44;100.00;100124.44;5111708;28;20161;-81
2023/06/05 05:04:21;;;;;;;14.30;11.13;;;;;;;13.61;100.00;100134.78;5113311;28;20075;-81
2023/06/05 05:07:06;;;;;;;10.65;8.77;;;;;;;13.42;100.00;100136.97;5113515;28;20062;-81
2023/06/05 05:09:50;;;;;;;10.95;8.48;;;;;;;13.33;100.00;100130.16;5111470;28;20097;-81
2023/06/05 05:12:34;;;;;;;12.68;8.85;;;;;;;13.25;100.00;100124.00;5107338;28;20037;-80
2023/06/05 05:15:18;;;;;;;15.27;10.30;;;;;;;12.90;100.00;100129.03;5111791;28;20100;-80
2023/06/05 05:18:02;;;;;;;17.08;12.48;;;;;;;13.16;100.00;100125.09;5105136;28;20047;-80
2023/06/05 05:20:47;;;;;;;18.90;12.98;;;;;;;13.44;100.00;100127.09;5109730;28;20081;-80
2023/06/05 05:23:32;;;;;;;20.20;13.95;;;;;;;13.50;100.00;100133.44;5111431;28;20062;-80
2023/06/05 05:26:16;;;;;;;23.58;15.45;;;;;;;13.65;100.00;100128.09;5110146;28;20077;-79
2023/06/05 05:29:00;;;;;;;24.33;14.10;;;;;;;13.67;100.00;100131.38;5111308;28;20050;-80
2023/06/05 05:31:44;;;;;;;18.83;12.77;;;;;;;13.02;100.00;100136.50;5109077;28;20079;-80
2023/06/05 05:34:28;;;;;;;21.55;13.13;;;;;;;13.47;100.00;100120.63;5109694;28;20057;-79
2023/06/05 05:37:13;;;;;;;18.20;11.93;;;;;;;13.55;100.00;100118.66;5109264;28;20089;-80
2023/06/05 05:39:57;;;;;;;17.08;11.02;;;;;;;13.86;100.00;100129.94;5112334;28;20184;-78
2023/06/05 05:42:41;;;;;;;18.02;11.85;;;;;;;13.82;100.00;100129.50;5110596;28;20160;-81
2023/06/05 05:45:25;;;;;;;17.02;11.10;;;;;;;13.51;100.00;100130.59;5109528;28;20042;-80
2023/06/05 05:48:09;;;;;;;14.27;10.00;;;;;;;13.59;100.00;100119.13;5106986;28;20125;-79
2023/06/05 05:50:53;;;;;;;13.32;9.55;;;;;;;13.78;100.00;100128.25;5109421;28;20420;-80
2023/06/05 05:53:37;;;;;;;18.30;10.23;;;;;;;13.18;100.00;100127.56;5108204;28;20118;-79
2023/06/05 05:56:21;;;;;;;15.95;9.45;;;;;;;13.39;100.00;100118.88;5108158;28;20116;-81
2023/06/05 05:59:05;;;;;;;12.65;10.45;;;;;;;13.80;100.00;100134.16;5128681;28;20050;-79
2023/06/05 06:01:49;;;;;;;;;;;;;;;13.95;100.00;100138.53;5131487;28;20142;-79
2023/06/05 06:04:34;;;;;;;15.32;9.88;;;;;;;13.90;100.00;100130.34;5128637;28;19919;-80
2023/06/05 06:07:18;;;;;;;14.10;10.05;;;;;;;14.02;100.00;100125.38;5129692;28;20042;-78
2023/06/05 06:10:02;;;;;;;14.95;9.32;;;;;;;13.61;100.00;100132.13;5127163;28;20373;-81
2023/06/05 06:12:47;;;;;;;14.65;9.55;;;;;;;13.90;100.00;100141.75;5131133;28;20088;-80
2023/06/05 06:15:31;;;;;;;13.75;8.95;;;;;;;14.17;100.00;100135.88;5111389;28;20058;-80
2023/06/05 06:18:15;;;;;;;13.05;10.27;;;;;;;14.28;100.00;100140.63;5125647;27;20412;-81
2023/06/05 06:20:59;;;;;;;11.73;8.45;;;;;;;14.56;100.00;100139.81;5121305;28;20124;-80
2023/06/05 06:23:44;;;;;;;12.07;9.15;;;;;;;14.70;100.00;100135.44;5130101;28;20038;-80
2023/06/05 06:26:28;;;;;;;11.95;8.55;;;;;;;13.96;100.00;100140.19;5131191;28;20073;-80
2023/06/05 06:29:20;;;;;;;11.20;8.27;;;;;;;13.74;100.00;100126.16;5124039;28;20055;-81
2023/06/05 06:32:05;;;;;;;16.80;8.95;;;;;;;14.26;100.00;100130.28;5127327;28;20057;-80
2023/06/05 06:34:49;;;;;;;12.13;7.25;;;;;;;14.16;100.00;100139.53;5127630;28;20096;-80
2023/06/05 06:37:33;;;;;;;11.35;7.93;;;;;;;13.82;100.00;100132.13;5127587;28;20087;-82
2023/06/05 06:40:17;;;;;;;11.40;7.95;;;;;;;13.62;100.00;100128.47;5130659;28;20050;-84
2023/06/05 06:43:01;;;;;;;11.15;7.88;;;;;;;13.89;100.00;100134.00;5131761;28;20070;-82
2023/06/05 06:45:45;;;;;;;11.60;7.05;;;;;;;14.22;100.00;100128.19;5130064;28;20104;-82
2023/06/05 06:48:30;;;;;;;10.93;7.22;;;;;;;14.28;100.00;100135.34;5125853;28;20042;-83
2023/06/05 06:51:14;;;;;;;13.48;7.30;;;;;;;14.05;100.00;100144.31;5126206;28;20242;-84
2023/06/05 06:53:58;;;;;;;10.98;7.97;;;;;;;14.14;100.00;100132.59;5114368;28;20050;-84
2023/06/05 06:56:42;;;;;;;9.68;7.03;;;;;;;13.49;100.00;100122.06;5129490;28;20104;-84
2023/06/05 06:59:27;;;;;;;10.73;6.68;;;;;;;14.24;100.00;100128.81;5131308;27;20107;-86
2023/06/05 07:02:13;;;;;;;12.93;7.03;;;;;;;13.64;100.00;100134.38;5124425;27;20065;-85
2023/06/05 07:04:57;;;;;;;10.18;7.38;;;;;;;13.76;100.00;100130.25;5130425;27;20042;-84
2023/06/05 07:07:44;;;;;;;10.93;7.70;;;;;;;13.81;100.00;100127.88;5133408;27;20394;-84
2023/06/05 07:10:29;;;;;;;12.02;7.10;;;;;;;13.85;100.00;100134.38;5133214;27;20392;-80
2023/06/05 07:13:13;;;;;;;12.23;7.15;;;;;;;13.77;100.00;100128.41;5109434;27;20097;-80
2023/06/05 07:15:57;;;;;;;8.30;6.40;;;;;;;14.30;100.00;100146.53;5119589;27;20143;-80
2023/06/05 07:18:41;;;;;;;10.10;7.05;;;;;;;14.09;100.00;100150.03;5106297;27;20046;-80
2023/06/05 07:21:26;;;;;;;9.38;7.45;;;;;;;14.28;100.00;100148.56;5111348;27;20058;-78
2023/06/05 07:24:11;;;;;;;9.27;6.60;;;;;;;14.42;100.00;100136.25;5115131;27;20089;-78
2023/06/05 07:26:56;;;;;;;7.25;6.25;;;;;;;15.14;100.00;100146.66;5119816;27;20046;-79
2023/06/05 07:29:40;;;;;;;8.88;6.65;;;;;;;15.33;100.00;100153.03;5102597;27;20404;-80
2023/06/05 07:32:24;;;;;;;10.27;7.13;;;;;;;15.62;100.00;100142.31;5110329;27;20077;-79
2023/06/05 07:35:09;;;;;;;9.25;7.10;;;;;;;15.73;98.86;100144.38;5118907;27;20157;-79
2023/06/05 07:37:53;;;;;;;9.95;7.53;;;;;;;15.80;98.47;100147.03;5121592;27;20076;-78
2023/06/05 07:40:37;;;;;;;8.15;6.40;;;;;;;15.55;97.38;100151.06;5124268;27;20096;-77
2023/06/05 07:43:21;;;;;;;9.65;6.88;;;;;;;15.18;98.59;100155.81;5118873;27;20505;-78
2023/06/05 07:46:06;;;;;;;9.98;6.93;;;;;;;15.20;97.93;100142.38;5123562;27;20560;-79
2023/06/05 07:48:49;;;;;;;9.40;7.45;;;;;;;15.55;96.01;100158.19;5123496;27;20080;-78
2023/06/05 07:51:35;;;;;;;10.98;7.88;;;;;;;15.67;96.08;100145.16;5117710;27;20537;-79
2023/06/05 07:54:20;;;;;;;10.50;7.63;;;;;;;15.99;94.27;100156.03;5134156;27;20150;-80
2023/06/05 07:57:07;;;;;;;8.95;8.05;;;;;;;16.00;92.98;100149.72;5132357;27;20137;-80
2023/06/05 07:59:52;;;;;;;6.95;6.25;;;;;;;16.65;90.84;100150.91;5130598;27;20176;-80
2023/06/05 08:02:37;;;;;;;6.80;6.18;;;;;;;16.16;90.54;100147.72;5128371;27;20046;-80
2023/06/05 08:05:21;;;;;;;8.98;6.88;;;;;;;15.30;93.25;100149.94;5123429;27;20581;-81
2023/06/05 08:08:05;;;;;;;10.45;7.88;;;;;;;15.59;92.98;100142.72;5129199;27;20038;-83
2023/06/05 08:10:49;;;;;;;9.50;7.63;;;;;;;15.79;91.75;100150.69;5110521;27;20457;-81
2023/06/05 08:13:33;;;;;;;8.07;6.32;;;;;;;16.07;91.29;100139.94;5126506;27;20042;-80
2023/06/05 08:16:21;;;;;;;6.90;6.20;;;;;;;16.42;90.70;100152.19;5115070;27;20093;-80
2023/06/05 08:19:06;;;;;;;6.65;5.90;;;;;;;16.84;89.86;100149.22;5112527;27;20061;-79
2023/06/05 08:21:52;;;;;;;8.68;6.20;;;;;;;17.16;88.89;100141.41;5128766;27;20038;-80
2023/06/05 08:24:37;;;;;;;7.85;6.28;;;;;;;18.22;85.07;100142.78;5116706;27;20057;-81
2023/06/05 08:27:21;;;;;;;9.40;6.88;;;;;;;18.62;83.22;100145.06;5122039;27;20052;-81
2023/06/05 08:30:05;;;;;;;9.88;5.45;;;;;;;17.64;84.71;100137.47;5126635;27;20042;-82
2023/06/05 08:32:50;;;;;;;6.53;5.43;;;;;;;17.07;87.17;100145.28;5128384;27;20091;-80
2023/06/05 08:35:34;;;;;;;6.53;5.53;;;;;;;17.47;87.21;100139.78;5125905;27;20074;-81
2023/06/05 08:38:18;;;;;;;7.20;5.80;;;;;;;18.11;84.32;100142.47;5103718;27;20139;-82
2023/06/05 08:41:12;;;;;;;6.72;6.10;;;;;;;17.26;86.75;100144.41;5109573;27;20035;-80
2023/06/05 08:43:57;;;;;;;9.23;6.00;;;;;;;17.11;87.28;100138.56;5105584;27;20054;-78
2023/06/05 08:46:42;;;;;;;9.13;6.38;;;;;;;16.66;88.48;100150.69;5111380;27;20042;-79
2023/06/05 08:49:36;;;;;;;8.57;6.78;;;;;;;16.77;88.06;100143.13;5122877;27;20078;-76
2023/06/05 08:52:23;;;;;;;9.52;6.35;;;;;;;16.60;88.88;100138.28;5129641;27;20050;-76
2023/06/05 08:55:07;;;;;;;9.43;6.18;;;;;;;16.70;89.18;100141.31;5127505;27;20042;-76
2023/06/05 08:57:52;;;;;;;7.85;7.05;;;;;;;17.00;88.23;100142.69;5120948;27;20050;-75
2023/06/05 09:00:36;;;;;;;8.15;6.40;;;;;;;16.71;88.61;100139.47;5122947;27;20050;-78
2023/06/05 09:03:20;;;;;;;8.20;6.60;;;;;;;17.10;87.27;100139.59;5126409;27;20042;-80
2023/06/05 09:06:04;;;;;;;8.82;6.82;;;;;;;17.83;86.42;100141.00;5129253;27;20085;-80
2023/06/05 09:08:48;;;;;;;8.40;7.50;;;;;;;17.78;84.22;100140.00;5117634;27;20046;-77
2023/06/05 09:11:32;;;;;;;9.80;7.43;;;;;;;18.05;84.37;100134.56;5102798;27;20154;-76
2023/06/05 09:14:25;;;;;;;9.93;6.85;;;;;;;17.47;85.23;100139.78;5126629;27;20095;-76
2023/06/05 09:17:13;;;;;;;10.88;6.75;;;;;;;17.98;83.97;100130.09;5123200;27;20078;-77
2023/06/05 09:19:57;;;;;;;8.57;7.78;;;;;;;17.04;84.77;100137.75;5126941;27;20081;-77
2023/06/05 09:22:41;;;;;;;10.85;7.97;;;;;;;16.87;85.86;100151.44;5120180;27;20554;-77
2023/06/05 09:25:25;;;;;;;11.02;8.60;;;;;;;16.60;85.99;100145.41;5104048;27;20104;-76
2023/06/05 09:28:09;;;;;;;12.27;9.32;;;;;;;17.08;85.71;100138.97;5118017;27;20038;-77
2023/06/05 09:30:58;;;;;;;13.35;8.77;;;;;;;17.18;84.49;100130.56;5115679;27;20050;-77
2023/06/05 09:33:54;;;;;;;10.73;7.40;;;;;;;17.15;84.45;100138.94;5118398;27;20377;-78
2023/06/05 09:36:45;;;;;;;10.27;7.95;;;;;;;17.75;82.68;100135.97;5121376;27;20500;-77
2023/06/05 09:39:31;;;;;;;8.48;7.32;;;;;;;17.05;83.25;100139.38;5113051;28;20587;-79
2023/06/05 09:42:15;;;;;;;7.57;6.75;;;;;;;17.11;83.11;100138.56;5127320;27;20088;-78
2023/06/05 09:45:00;;;;;;;7.60;6.30;;;;;;;16.91;83.78;100131.47;5113833;27;20545;-78
2023/06/05 09:47:45;;;;;;;11.45;7.20;;;;;;;17.86;84.13;100134.47;5128456;27;20103;-79
2023/06/05 09:50:29;;;;;;;8.02;6.85;;;;;;;18.27;81.65;100129.66;5126651;27;20069;-79
2023/06/05 09:53:16;;;;;;;7.55;6.50;;;;;;;18.52;80.78;100142.91;5125895;27;20176;-78
2023/06/05 09:56:02;;;;;;;9.70;6.40;;;;;;;18.34;80.31;100145.53;5115316;28;20042;-78
2023/06/05 09:58:51;;;;;;;8.77;6.57;;;;;;;18.52;79.96;100136.78;5115383;28;20495;-79
2023/06/05 10:01:41;;;;;;;9.90;6.15;;;;;;;18.59;80.31;100134.06;5130553;27;20231;-78
2023/06/05 10:04:29;;;;;;;11.32;6.07;;;;;;;17.79;80.70;100121.22;5130426;27;20202;-78
2023/06/05 10:07:15;;;;;;;9.95;6.65;;;;;;;18.64;80.51;100135.00;5130862;28;20401;-78
2023/06/05 10:10:00;;;;;;;8.43;6.20;;;;;;;19.46;79.79;100125.06;5113417;28;20046;-78
2023/06/05 10:12:44;;;;;;;10.00;5.88;;;;;;;19.55;76.20;100131.66;5130487;27;20088;-78
2023/06/05 10:15:30;;;;;;;8.02;5.93;;;;;;;19.83;75.00;100127.56;5125791;27;20046;-79
2023/06/05 10:18:14;;;;;;;11.13;6.60;;;;;;;19.38;75.32;100130.69;5129211;28;20046;-79
2023/06/05 10:20:58;;;;;;;11.07;7.20;;;;;;;19.34;75.92;100132.19;5130475;28;20122;-78
2023/06/05 10:24:11;;;;;;;9.60;6.68;;;;;;;18.05;78.90;100118.63;5130549;28;20038;-78
2023/06/05 10:27:21;;;;;;;8.75;6.85;;;;;;;18.17;79.08;100145.28;5126932;28;20508;-79
2023/06/05 10:30:33;;;;;;;8.00;7.15;;;;;;;19.27;78.43;100133.09;5126250;28;20038;-79
2023/06/05 10:33:30;;;;;;;8.25;7.13;;;;;;;19.94;75.47;100135.84;5129668;27;20050;-78
2023/06/05 10:36:39;;;;;;;14.40;7.30;;;;;;;19.34;75.67;100140.97;5111864;27;20042;-79
2023/06/05 10:39:26;;;;;;;9.05;7.22;;;;;;;19.79;75.69;100137.03;5130744;27;20519;-78
2023/06/05 10:42:10;;;;;;;12.52;7.57;;;;;;;20.29;73.31;100127.06;5130837;27;20039;-79
2023/06/05 10:44:55;;;;;;;8.10;7.30;;;;;;;19.64;73.77;100137.50;5129393;27;20054;-78
2023/06/05 10:47:38;;;;;;;8.43;6.82;;;;;;;20.38;73.42;100136.31;5133315;27;20176;-79
2023/06/05 10:50:27;;;;;;;8.68;7.10;;;;;;;20.48;73.30;100145.59;5133690;27;20171;-79
2023/06/05 10:53:44;;;;;;;13.20;7.75;;;;;;;19.16;74.60;100144.47;5128814;27;20070;-79
2023/06/05 10:56:50;;;;;;;9.27;6.68;;;;;;;19.81;72.99;100148.28;5132533;27;20400;-78
2023/06/05 10:59:37;;;;;;;7.75;6.53;;;;;;;20.09;73.67;100141.53;5132520;27;20042;-79
2023/06/05 11:02:22;;;;;;;6.80;5.85;;;;;;;20.28;72.85;100141.44;5129675;27;20073;-78
2023/06/05 11:05:07;;;;;;;12.18;6.38;;;;;;;20.58;72.27;100142.34;5133957;27;20127;-78
2023/06/05 11:08:15;;;;;;;7.65;6.07;;;;;;;20.46;72.45;100129.81;5132755;27;20451;-78
2023/06/05 11:11:09;;;;;;;12.50;7.10;;;;;;;20.08;72.77;100137.25;5131902;27;20038;-80
2023/06/05 11:13:58;;;;;;;;;;;;;;;19.95;72.22;100137.47;5133844;27;20058;-79
2023/06/05 11:16:42;;;;;;;10.57;6.80;;;;;;;19.93;73.40;100134.22;5133508;27;19918;-79
2023/06/05 11:19:29;;;;;;;10.82;6.13;;;;;;;20.12;72.46;100138.41;5132712;27;20092;-79
2023/06/05 11:22:13;;;;;;;8.32;6.28;;;;;;;20.86;73.45;100136.28;5131316;27;20373;-79
2023/06/05 11:25:16;;;;;;;9.02;6.40;;;;;;;21.18;70.92;100138.50;5133854;27;20445;-79
2023/06/05 11:28:07;;;;;;;7.38;6.18;;;;;;;21.29;72.43;100138.69;5130151;27;20994;-79
2023/06/05 11:30:51;;;;;;;8.90;5.90;;;;;;;20.78;70.19;100139.28;5132918;27;20062;-78
2023/06/05 11:33:35;;;;;;;9.35;5.32;;;;;;;21.06;69.88;100133.22;5128868;27;20122;-79
2023/06/05 11:36:23;;;;;;;11.70;6.45;;;;;;;21.33;69.10;100145.19;5115288;27;20046;-79
2023/06/05 11:39:07;;;;;;;9.43;6.10;;;;;;;20.51;70.19;100131.78;5129866;27;20107;-78
2023/06/05 11:41:52;;;;;;;9.65;5.90;;;;;;;21.28;69.72;100137.09;5130961;27;20042;-79
2023/06/05 11:44:35;;;;;;;10.40;6.13;;;;;;;20.94;69.19;100137.78;5132743;27;20041;-79
2023/06/05 11:47:30;;;;;;;7.72;5.97;;;;;;;20.81;70.00;100123.66;5115963;27;20030;-80
2023/06/05 11:50:17;;;;;;;13.25;6.35;;;;;;;21.04;68.99;100127.28;5132239;27;20046;-79
2023/06/05 11:53:10;;;;;;;10.95;6.30;;;;;;;20.89;68.13;100127.81;5132723;27;20053;-78
2023/06/05 11:56:06;;;;;;;8.68;6.43;;;;;;;20.94;70.35;100130.56;5129696;27;20046;-79
2023/06/05 11:58:50;;;;;;;7.05;6.07;;;;;;;20.85;68.74;100118.66;5132463;27;20393;-79
2023/06/05 12:01:36;;;;;;;11.30;6.13;;;;;;;19.74;70.27;100120.94;5131836;27;20046;-79
2023/06/05 12:04:20;;;;;;;9.48;6.22;;;;;;;19.96;70.46;100117.75;5132907;27;20042;-80
2023/06/05 12:07:04;;;;;;;11.88;6.72;;;;;;;20.32;70.03;100121.25;5131709;27;20557;-79
2023/06/05 12:09:52;;;;;;;7.70;6.40;;;;;;;20.39;70.19;100123.81;5131747;27;20050;-78
2023/06/05 12:12:53;;;;;;;10.85;6.30;;;;;;;20.69;69.63;100123.66;5128132;27;20054;-79
2023/06/05 12:15:37;;;;;;;13.05;6.20;;;;;;;21.06;70.36;100113.72;5127145;27;20096;-79
2023/06/05 12:18:21;;;;;;;9.10;5.40;;;;;;;21.04;68.99;100115.81;5116674;27;20095;-80
2023/06/05 12:21:06;;;;;;;10.07;6.15;;;;;;;20.89;70.28;100106.47;5130947;27;20046;-80
2023/06/05 12:23:51;;;;;;;11.45;6.18;;;;;;;21.36;69.52;100112.66;5132099;27;20062;-79
2023/06/05 12:27:11;;;;;;;9.50;5.72;;;;;;;21.05;68.32;100112.09;5126364;27;20126;-80
2023/06/05 12:29:55;;;;;;;6.78;5.70;;;;;;;21.69;69.00;100111.91;5036960;28;20474;-80
2023/06/05 12:32:39;;;;;;;;;;;;;;;21.20;69.56;100117.72;5113890;27;20043;-80
2023/06/05 12:35:24;;;;;;;10.75;6.07;;;;;;;20.65;69.75;100103.84;5110954;27;19999;-79
2023/06/05 12:38:08;;;;;;;9.65;6.45;;;;;;;19.93;70.94;100110.22;5124492;27;20087;-79
2023/06/05 12:40:53;;;;;;;6.75;5.88;;;;;;;20.71;69.65;100101.25;5130688;27;20092;-80